EGPO

Stornoway Airport

Stornoway, United Kingdom
METAR EGPO 201650Z AUTO 21010KT 9999 OVC008/// 14/13 Q1017
Observed Flight Rules
Oct-20 @ 16:50 UTC (21 minutes ago) Instrument Flight Rules
Wind Visibility Clouds
210° at 10 knots 10,000+ meters
  • Overcast at 800' AGL
Temperatures Readings
Current 14°C / 57°F
Dewpoint 13°C / 55°F
Humidity 94%
Altimeter 30.03" Hg
Pressure 1017 hPa
Elevation 13
METAR EGPO 201650Z AUTO 21010KT 9999 OVC008/// 14/13 Q1017
Observed Flight Rules
Oct-20 @ 16:50 UTC
(21 minutes ago)
IFR
Wind Visibility
210° at 10 knots 10,000+ meters
Clouds
  • Overcast at 800' AGL
Temperature Dewpoint
14°C / 57°F 13°C / 55°F
Humidity Altimeter Pressure
94% 30.03" Hg 1017 hPa